createdAt,value
2023-03-01T00:00:16.229Z,101613.38
2023-03-01T00:02:43.234Z,101606.53
2023-03-01T00:05:10.138Z,101599.66
2023-03-01T00:07:36.998Z,101607.66
2023-03-01T00:10:04.647Z,101615.88
2023-03-01T00:12:32.620Z,101612.34
2023-03-01T00:14:59.474Z,101604.41
2023-03-01T00:17:26.448Z,101603.81
2023-03-01T00:19:53.222Z,101610.19
2023-03-01T00:22:19.985Z,101613.16
2023-03-01T00:24:46.912Z,101612.34
2023-03-01T00:27:13.796Z,101617.50
2023-03-01T00:29:40.639Z,101607.13
2023-03-01T00:32:07.570Z,101614.75
2023-03-01T00:34:34.461Z,101601.72
2023-03-01T00:37:06.278Z,101596.41
2023-03-01T00:39:34.365Z,101587.31
2023-03-01T00:42:01.441Z,101571.94
2023-03-01T00:44:29.488Z,101573.59
2023-03-01T00:46:56.460Z,101567.25
2023-03-01T00:49:25.307Z,101569.19
2023-03-01T00:51:52.346Z,101574.28
2023-03-01T00:54:19.197Z,101563.53
2023-03-01T00:56:47.972Z,101563.47
2023-03-01T00:59:14.842Z,101564.50
2023-03-01T01:01:41.878Z,101558.16
2023-03-01T01:04:11.621Z,101560.44
2023-03-01T01:06:44.792Z,101566.34
2023-03-01T01:09:18.221Z,101552.97
2023-03-01T01:11:50.811Z,101558.66
2023-03-01T01:14:19.405Z,101554.28
2023-03-01T01:16:46.577Z,101548.25
2023-03-01T01:19:14.361Z,101541.22
2023-03-01T01:21:44.234Z,101539.53
2023-03-01T01:24:12.382Z,101545.63
2023-03-01T01:26:39.479Z,101538.84
2023-03-01T01:29:07.504Z,101546.16
2023-03-01T01:31:35.850Z,101540.16
2023-03-01T01:34:04.969Z,101536.94
2023-03-01T01:36:33.040Z,101541.59
2023-03-01T01:39:00.554Z,101549.56
2023-03-01T01:41:29.460Z,101542.44
2023-03-01T01:44:16.969Z,101538.88
2023-03-01T01:47:02.180Z,101531.78
2023-03-01T01:49:34.808Z,101539.97
2023-03-01T01:52:11.191Z,101546.28
2023-03-01T01:54:59.154Z,101549.25
2023-03-01T01:57:35.373Z,101552.22
2023-03-01T02:00:09.405Z,101538.06
2023-03-01T02:02:45.870Z,101541.31
2023-03-01T02:05:30.446Z,101535.34
2023-03-01T02:07:59.298Z,101538.84
2023-03-01T02:10:28.062Z,101532.03
2023-03-01T02:12:57.199Z,101540.16
2023-03-01T02:15:25.139Z,101547.91
2023-03-01T02:17:53.353Z,101552.53
2023-03-01T02:20:51.389Z,101546.88
2023-03-01T02:23:18.754Z,101556.38
2023-03-01T02:25:55.126Z,101550.44
2023-03-01T02:28:26.293Z,101555.81
2023-03-01T02:31:13.716Z,101556.84
2023-03-01T02:33:41.028Z,101549.94
2023-03-01T02:36:14.349Z,101558.75
2023-03-01T02:38:45.162Z,101567.22
2023-03-01T02:41:16.093Z,101568.06
2023-03-01T02:43:43.780Z,101572.47
2023-03-01T02:46:24.313Z,101570.19
2023-03-01T02:48:54.678Z,101574.78
2023-03-01T02:51:44.855Z,101580.88
2023-03-01T02:54:51.425Z,101574.78
2023-03-01T02:57:20.713Z,101580.31
2023-03-01T02:59:47.783Z,101577.88
2023-03-01T03:02:37.195Z,101578.34
2023-03-01T03:05:27.822Z,101572.03
2023-03-01T03:07:59.415Z,101586.47
2023-03-01T03:10:33.659Z,101592.00
2023-03-01T03:13:08.599Z,101590.69
2023-03-01T03:27:50.880Z,101577.38
2023-03-01T03:30:20.701Z,101559.75
2023-03-01T03:32:54.463Z,101563.53
2023-03-01T03:35:31.580Z,101576.06
2023-03-01T03:38:03.738Z,101584.41
2023-03-01T03:40:37.640Z,101581.44
2023-03-01T03:46:11.026Z,101568.63
2023-03-01T03:48:43.787Z,101569.00
2023-03-01T03:51:16.066Z,101549.88
2023-03-01T03:53:43.789Z,101540.53
2023-03-01T03:56:11.559Z,101547.06
2023-03-01T03:58:56.935Z,101547.59
2023-03-01T04:01:42.410Z,101549.47
2023-03-01T04:04:27.741Z,101531.47
2023-03-01T04:06:54.613Z,101533.16
2023-03-01T04:09:21.443Z,101526.03
2023-03-01T04:11:48.298Z,101531.00
2023-03-01T04:14:15.105Z,101526.31
2023-03-01T04:16:42.159Z,101522.75
2023-03-01T04:19:10.647Z,101525.19
2023-03-01T04:21:37.546Z,101521.41
2023-03-01T04:24:05.416Z,101531.56
2023-03-01T04:26:32.704Z,101528.81
2023-03-01T04:28:59.786Z,101526.16
2023-03-01T04:31:26.713Z,101536.03
2023-03-01T04:33:55.395Z,101539.59
2023-03-01T04:36:25.542Z,101539.59
2023-03-01T04:38:53.066Z,101543.38
2023-03-01T04:41:23.420Z,101541.78
2023-03-01T04:43:50.751Z,101546.06
2023-03-01T04:46:20.650Z,101534.97
2023-03-01T04:48:48.479Z,101539.66
2023-03-01T04:51:15.779Z,101535.25
2023-03-01T04:53:44.033Z,101539.28
2023-03-01T04:56:11.870Z,101539.66
2023-03-01T04:58:38.692Z,101531.94
2023-03-01T05:01:18.437Z,101535.53
2023-03-01T05:03:47.634Z,101531.09
2023-03-01T05:06:15.766Z,101528.50
2023-03-01T05:08:43.247Z,101533.16
2023-03-01T05:11:11.483Z,101527.72
2023-03-01T05:13:39.859Z,101528.78
2023-03-01T05:16:12.544Z,101521.34
2023-03-01T05:18:40.963Z,101541.38
2023-03-01T05:21:17.352Z,101534.72
2023-03-01T05:23:44.743Z,101544.59
2023-03-01T05:26:27.387Z,101538.06
2023-03-01T05:29:00.034Z,101540.66
2023-03-01T05:31:27.559Z,101531.69
2023-03-01T05:33:54.434Z,101530.31
2023-03-01T05:36:21.357Z,101524.56
2023-03-01T05:38:48.166Z,101539.78
2023-03-01T05:41:17.976Z,101536.34
2023-03-01T05:43:46.085Z,101550.72
2023-03-01T05:46:14.561Z,101539.00
2023-03-01T05:48:41.480Z,101530.38
2023-03-01T05:51:08.438Z,101534.97
2023-03-01T05:53:35.325Z,101539.16
2023-03-01T05:56:05.696Z,101536.94
2023-03-01T05:58:32.828Z,101539.13
2023-03-01T06:00:59.699Z,101540.88
2023-03-01T06:03:26.572Z,101537.06
2023-03-01T06:05:58.671Z,101535.72
2023-03-01T06:08:27.774Z,101542.78
2023-03-01T06:10:55.102Z,101536.28
2023-03-01T06:13:22.110Z,101529.59
2023-03-01T06:15:49.133Z,101540.59
2023-03-01T06:18:16.036Z,101554.13
2023-03-01T06:20:42.822Z,101545.91
2023-03-01T06:23:10.810Z,101547.81
2023-03-01T06:25:38.390Z,101553.31
2023-03-01T06:28:05.704Z,101549.00
2023-03-01T06:30:33.122Z,101536.19
2023-03-01T06:33:02.443Z,101527.72
2023-03-01T06:35:30.979Z,101529.59
2023-03-01T06:37:59.220Z,101532.72
2023-03-01T06:40:26.714Z,101542.03
2023-03-01T06:42:53.549Z,101541.69
2023-03-01T06:45:22.013Z,101534.81
2023-03-01T06:47:49.120Z,101527.44
2023-03-01T06:50:16.523Z,101530.16
2023-03-01T06:55:14.369Z,101532.69
2023-03-01T06:57:41.471Z,101535.19
2023-03-01T07:00:09.259Z,101537.19
2023-03-01T07:02:36.224Z,101540.47
2023-03-01T07:05:06.196Z,101542.66
2023-03-01T07:07:33.292Z,101533.53
2023-03-01T07:10:00.116Z,101532.03
2023-03-01T07:12:26.968Z,101535.53
2023-03-01T07:14:53.817Z,101542.28
2023-03-01T07:17:20.748Z,101539.50
2023-03-01T07:19:47.562Z,101544.81
2023-03-01T07:22:14.383Z,101542.84
2023-03-01T07:24:43.545Z,101543.78
2023-03-01T07:27:11.219Z,101547.88
2023-03-01T07:29:38.105Z,101550.81
2023-03-01T07:32:06.639Z,101555.59
2023-03-01T07:34:34.163Z,101550.41
2023-03-01T07:37:00.986Z,101550.97
2023-03-01T07:39:27.890Z,101551.38
2023-03-01T07:41:54.842Z,101545.63
2023-03-01T07:44:23.082Z,101548.41
2023-03-01T07:46:50.044Z,101549.59
2023-03-01T07:49:16.885Z,101543.31
2023-03-01T07:51:44.649Z,101540.84
2023-03-01T07:54:11.594Z,101540.00
2023-03-01T07:56:38.529Z,101531.25
2023-03-01T07:59:05.430Z,101534.81
2023-03-01T08:01:32.430Z,101535.59
2023-03-01T08:03:59.427Z,101533.34
2023-03-01T08:06:26.405Z,101545.22
2023-03-01T08:08:53.427Z,101539.41
2023-03-01T08:11:20.304Z,101544.41
2023-03-01T08:13:51.355Z,101537.00
2023-03-01T08:16:19.141Z,101544.09
2023-03-01T08:18:46.036Z,101548.16
2023-03-01T08:21:15.431Z,101546.31
2023-03-01T08:23:43.135Z,101541.75
2023-03-01T08:26:15.970Z,101545.91
2023-03-01T08:28:43.279Z,101543.81
2023-03-01T08:31:16.254Z,101541.97
2023-03-01T08:33:43.282Z,101542.22
2023-03-01T08:36:10.443Z,101543.06
2023-03-01T08:38:37.298Z,101550.47
2023-03-01T08:41:04.884Z,101546.91
